sensor_id;sensor_type;location;lat;lon;timestamp;pressure;altitude;pressure_sealevel;temperature;humidity
74437;BME280;62868;52.360;30.424;2024-02-21T00:04:20;1026.9;;;2.1;67.5
74437;BME280;62868;52.360;30.424;2024-02-21T00:09:20;1026.9;;;2.2;67.4
74437;BME280;62868;52.360;30.424;2024-02-21T00:14:36;1026.9;;;2.2;67.5
74437;BME280;62868;52.360;30.424;2024-02-21T00:19:54;1026.9;;;2.3;67.4
74437;BME280;62868;52.360;30.424;2024-02-21T00:24:42;1026.9;;;2.4;67.4
74437;BME280;62868;52.360;30.424;2024-02-21T00:29:52;1026.9;;;2.4;67.5
74437;BME280;62868;52.360;30.424;2024-02-21T00:34:52;1026.8;;;2.4;67.5
74437;BME280;62868;52.360;30.424;2024-02-21T00:39:12;1026.7;;;2.5;67.5
74437;BME280;62868;52.360;30.424;2024-02-21T00:44:52;1026.7;;;2.5;67.5
74437;BME280;62868;52.360;30.424;2024-02-21T00:49:44;1026.7;;;2.6;67.5
74437;BME280;62868;52.360;30.424;2024-02-21T00:54:42;1026.6;;;2.6;67.5
74437;BME280;62868;52.360;30.424;2024-02-21T00:59:28;1026.6;;;2.7;67.5
74437;BME280;62868;52.360;30.424;2024-02-21T01:04:52;1026.5;;;2.7;67.6
74437;BME280;62868;52.360;30.424;2024-02-21T01:09:42;1026.5;;;2.8;67.5
74437;BME280;62868;52.360;30.424;2024-02-21T01:14:52;1026.5;;;2.9;67.5
74437;BME280;62868;52.360;30.424;2024-02-21T01:19:12;1026.4;;;2.9;67.5
74437;BME280;62868;52.360;30.424;2024-02-21T01:24:40;1026.4;;;3;67.5
74437;BME280;62868;52.360;30.424;2024-02-21T01:29:33;1026.4;;;3.1;67.4
74437;BME280;62868;52.360;30.424;2024-02-21T01:34:30;1026.4;;;3.1;67.5
74437;BME280;62868;52.360;30.424;2024-02-21T01:39:36;1026.4;;;3.1;67.5
74437;BME280;62868;52.360;30.424;2024-02-21T01:44:22;1026.5;;;3.1;67.5
74437;BME280;62868;52.360;30.424;2024-02-21T01:49:33;1026.5;;;3.2;67.6
74437;BME280;62868;52.360;30.424;2024-02-21T01:54:53;1026.4;;;3.2;67.6
74437;BME280;62868;52.360;30.424;2024-02-21T01:59:22;1026.4;;;3.2;67.6
74437;BME280;62868;52.360;30.424;2024-02-21T02:04:53;1026.5;;;3.2;67.5
74437;BME280;62868;52.360;30.424;2024-02-21T02:09:53;1026.4;;;3.2;67.6
74437;BME280;62868;52.360;30.424;2024-02-21T02:14:28;1026.5;;;3.2;67.6
74437;BME280;62868;52.360;30.424;2024-02-21T02:19:52;1026.4;;;3.2;67.7
74437;BME280;62868;52.360;30.424;2024-02-21T02:24:53;1026.5;;;3.3;67.6
74437;BME280;62868;52.360;30.424;2024-02-21T02:29:43;1026.5;;;3.3;67.6
74437;BME280;62868;52.360;30.424;2024-02-21T02:34:21;1026.5;;;3.3;67.7
74437;BME280;62868;52.360;30.424;2024-02-21T02:39:39;1026.5;;;3.3;67.7
74437;BME280;62868;52.360;30.424;2024-02-21T02:44:15;1026.6;;;3.3;67.8
74437;BME280;62868;52.360;30.424;2024-02-21T02:49:53;1026.6;;;3.3;67.8
74437;BME280;62868;52.360;30.424;2024-02-21T02:54:13;1026.6;;;3.3;67.8
74437;BME280;62868;52.360;30.424;2024-02-21T02:59:55;1026.6;;;3.3;67.8
74437;BME280;62868;52.360;30.424;2024-02-21T03:04:33;1026.6;;;3.3;67.8
74437;BME280;62868;52.360;30.424;2024-02-21T03:09:31;1026.6;;;3.4;67.8
74437;BME280;62868;52.360;30.424;2024-02-21T03:14:43;1026.6;;;3.4;67.8
74437;BME280;62868;52.360;30.424;2024-02-21T03:19:35;1026.6;;;3.4;67.8
74437;BME280;62868;52.360;30.424;2024-02-21T03:24:13;1026.6;;;3.4;67.8
74437;BME280;62868;52.360;30.424;2024-02-21T03:29:14;1026.7;;;3.5;67.8
74437;BME280;62868;52.360;30.424;2024-02-21T03:34:43;1026.7;;;3.5;67.8
74437;BME280;62868;52.360;30.424;2024-02-21T03:39:13;1026.7;;;3.5;67.8
74437;BME280;62868;52.360;30.424;2024-02-21T03:44:35;1026.7;;;3.5;67.8
74437;BME280;62868;52.360;30.424;2024-02-21T03:49:13;1026.8;;;3.5;67.7
74437;BME280;62868;52.360;30.424;2024-02-21T03:54:53;1026.8;;;3.5;67.7
74437;BME280;62868;52.360;30.424;2024-02-21T03:59:31;1026.8;;;3.5;67.7
74437;BME280;62868;52.360;30.424;2024-02-21T04:04:15;1026.9;;;3.5;67.7
74437;BME280;62868;52.360;30.424;2024-02-21T04:09:21;1026.9;;;3.5;67.8
74437;BME280;62868;52.360;30.424;2024-02-21T04:14:39;1026.9;;;3.6;67.7
74437;BME280;62868;52.360;30.424;2024-02-21T04:20:01;1027;;;3.6;67.8
74437;BME280;62868;52.360;30.424;2024-02-21T04:24:35;1027;;;3.6;67.7
74437;BME280;62868;52.360;30.424;2024-02-21T04:29:33;1027;;;3.6;67.7
74437;BME280;62868;52.360;30.424;2024-02-21T04:34:53;1027;;;3.6;67.7
74437;BME280;62868;52.360;30.424;2024-02-21T04:39:53;1027.1;;;3.6;67.6
74437;BME280;62868;52.360;30.424;2024-02-21T04:44:43;1027.1;;;3.6;67.6
74437;BME280;62868;52.360;30.424;2024-02-21T04:49:13;1027.2;;;3.6;67.6
74437;BME280;62868;52.360;30.424;2024-02-21T04:54:13;1027.2;;;3.5;67.6
74437;BME280;62868;52.360;30.424;2024-02-21T04:59:13;1027.3;;;3.5;67.6
74437;BME280;62868;52.360;30.424;2024-02-21T05:04:39;1027.3;;;3.6;67.5
74437;BME280;62868;52.360;30.424;2024-02-21T05:09:39;1027.3;;;3.6;67.6
74437;BME280;62868;52.360;30.424;2024-02-21T05:14:27;1027.3;;;3.6;67.5
74437;BME280;62868;52.360;30.424;2024-02-21T10:34:31;1028.5;;;8.9;57.6
74437;BME280;62868;52.360;30.424;2024-02-21T10:39:43;1028.6;;;8.5;57.9
74437;BME280;62868;52.360;30.424;2024-02-21T10:44:13;1028.6;;;8;58.3
74437;BME280;62868;52.360;30.424;2024-02-21T10:49:31;1028.6;;;7.4;58.6
74437;BME280;62868;52.360;30.424;2024-02-21T10:54:43;1028.5;;;7.1;58.8
74437;BME280;62868;52.360;30.424;2024-02-21T10:59:23;1028.6;;;6.8;59
74437;BME280;62868;52.360;30.424;2024-02-21T11:04:25;1028.6;;;6.7;59.1
74437;BME280;62868;52.360;30.424;2024-02-21T11:09:50;1028.6;;;6.6;59.2
74437;BME280;62868;52.360;30.424;2024-02-21T11:14:43;1028.7;;;6.5;59.3
74437;BME280;62868;52.360;30.424;2024-02-21T11:19:43;1028.7;;;6.7;59.1
74437;BME280;62868;52.360;30.424;2024-02-21T11:24:28;1028.6;;;6.9;58.9
74437;BME280;62868;52.360;30.424;2024-02-21T11:29:29;1028.6;;;7.2;58.7
74437;BME280;62868;52.360;30.424;2024-02-21T11:34:33;1028.6;;;7.6;58.4
74437;BME280;62868;52.360;30.424;2024-02-21T11:39:53;1028.6;;;7.8;58.2
74437;BME280;62868;52.360;30.424;2024-02-21T11:44:35;1028.6;;;7.9;58.3
74437;BME280;62868;52.360;30.424;2024-02-21T11:49:55;1028.4;;;7.9;58.4
74437;BME280;62868;52.360;30.424;2024-02-21T11:54:53;1028.4;;;8;58.2
74437;BME280;62868;52.360;30.424;2024-02-21T11:59:25;1028.3;;;8.3;57.9
74437;BME280;62868;52.360;30.424;2024-02-21T12:04:55;1028.3;;;8.4;57.7
74437;BME280;62868;52.360;30.424;2024-02-21T12:09:13;1028.4;;;8.4;57.7
74437;BME280;62868;52.360;30.424;2024-02-21T12:14:24;1028.4;;;8.3;57.9
74437;BME280;62868;52.360;30.424;2024-02-21T12:19:35;1028.4;;;8.1;58.1
74437;BME280;62868;52.360;30.424;2024-02-21T12:24:15;1028.4;;;7.9;58.3
74437;BME280;62868;52.360;30.424;2024-02-21T12:29:53;1028.5;;;7.7;58.5
74437;BME280;62868;52.360;30.424;2024-02-21T12:34:41;1028.5;;;7.6;58.6
74437;BME280;62868;52.360;30.424;2024-02-21T12:39:31;1028.6;;;7.5;58.6
74437;BME280;62868;52.360;30.424;2024-02-21T12:44:53;1028.7;;;7.5;58.5
74437;BME280;62868;52.360;30.424;2024-02-21T12:49:53;1028.7;;;7.4;58.6
74437;BME280;62868;52.360;30.424;2024-02-21T12:54:43;1028.7;;;7.3;58.6
74437;BME280;62868;52.360;30.424;2024-02-21T12:59:13;1028.6;;;7.2;58.7
74437;BME280;62868;52.360;30.424;2024-02-21T13:04:23;1028.6;;;7.2;58.7
74437;BME280;62868;52.360;30.424;2024-02-21T13:09:21;1028.6;;;7.1;58.9
74437;BME280;62868;52.360;30.424;2024-02-21T13:14:23;1028.7;;;7.1;59
74437;BME280;62868;52.360;30.424;2024-02-21T13:19:13;1028.7;;;7;59
74437;BME280;62868;52.360;30.424;2024-02-21T13:24:21;1028.6;;;6.9;59
74437;BME280;62868;52.360;30.424;2024-02-21T13:29:39;1028.6;;;6.9;59
74437;BME280;62868;52.360;30.424;2024-02-21T13:34:29;1028.6;;;6.9;59.1
74437;BME280;62868;52.360;30.424;2024-02-21T13:39:53;1028.7;;;6.8;59.3
74437;BME280;62868;52.360;30.424;2024-02-21T13:44:23;1028.6;;;6.7;59.4
74437;BME280;62868;52.360;30.424;2024-02-21T13:49:23;1028.6;;;6.7;59.4
74437;BME280;62868;52.360;30.424;2024-02-21T13:54:35;1028.7;;;6.7;59.4
74437;BME280;62868;52.360;30.424;2024-02-21T13:59:39;1028.7;;;6.6;59.5
74437;BME280;62868;52.360;30.424;2024-02-21T14:04:35;1028.6;;;6.6;59.6
74437;BME280;62868;52.360;30.424;2024-02-21T14:09:21;1028.6;;;6.5;59.7
74437;BME280;62868;52.360;30.424;2024-02-21T14:14:33;1028.6;;;6.3;59.8
74437;BME280;62868;52.360;30.424;2024-02-21T14:19:43;1028.7;;;6.3;59.9
74437;BME280;62868;52.360;30.424;2024-02-21T14:24:25;1028.7;;;6.2;60
74437;BME280;62868;52.360;30.424;2024-02-21T14:29:25;1028.7;;;6;60.2
74437;BME280;62868;52.360;30.424;2024-02-21T14:34:15;1028.7;;;6;60.3
74437;BME280;62868;52.360;30.424;2024-02-21T14:39:29;1028.8;;;5.9;60.4
74437;BME280;62868;52.360;30.424;2024-02-21T14:44:13;1028.8;;;5.8;60.5
74437;BME280;62868;52.360;30.424;2024-02-21T14:49:33;1028.8;;;5.7;60.7
74437;BME280;62868;52.360;30.424;2024-02-21T14:54:39;1028.8;;;5.6;60.8
74437;BME280;62868;52.360;30.424;2024-02-21T14:59:25;1028.8;;;5.5;60.9
74437;BME280;62868;52.360;30.424;2024-02-21T15:04:55;1028.9;;;5.3;61.1
74437;BME280;62868;52.360;30.424;2024-02-21T15:09:35;1028.8;;;5.2;61.3
74437;BME280;62868;52.360;30.424;2024-02-21T15:14:53;1028.8;;;5.1;61.4
74437;BME280;62868;52.360;30.424;2024-02-21T15:19:33;1028.8;;;5.1;61.5
74437;BME280;62868;52.360;30.424;2024-02-21T15:24:41;1028.8;;;5;61.7
74437;BME280;62868;52.360;30.424;2024-02-21T15:29:53;1028.8;;;4.8;61.9
74437;BME280;62868;52.360;30.424;2024-02-21T15:34:53;1028.9;;;4.8;61.9
74437;BME280;62868;52.360;30.424;2024-02-21T15:39:43;1028.9;;;4.8;62.1
74437;BME280;62868;52.360;30.424;2024-02-21T15:44:35;1028.9;;;4.7;62.2
74437;BME280;62868;52.360;30.424;2024-02-21T15:49:23;1028.9;;;4.7;62.2
74437;BME280;62868;52.360;30.424;2024-02-21T15:54:31;1028.9;;;4.7;62.4
74437;BME280;62868;52.360;30.424;2024-02-21T15:59:53;1028.8;;;4.6;62.5
74437;BME280;62868;52.360;30.424;2024-02-21T16:04:33;1028.8;;;4.6;62.5
74437;BME280;62868;52.360;30.424;2024-02-21T16:09:53;1028.8;;;4.6;62.6
74437;BME280;62868;52.360;30.424;2024-02-21T16:14:21;1028.8;;;4.6;62.7
74437;BME280;62868;52.360;30.424;2024-02-21T16:19:31;1028.8;;;4.6;62.7
74437;BME280;62868;52.360;30.424;2024-02-21T16:24:21;1028.8;;;4.6;62.8
74437;BME280;62868;52.360;30.424;2024-02-21T16:29:29;1028.9;;;4.6;62.8
74437;BME280;62868;52.360;30.424;2024-02-21T16:34:13;1028.9;;;4.6;62.9
74437;BME280;62868;52.360;30.424;2024-02-21T16:39:55;1028.9;;;4.6;63
74437;BME280;62868;52.360;30.424;2024-02-21T16:44:55;1028.9;;;4.6;63.1
74437;BME280;62868;52.360;30.424;2024-02-21T16:49:55;1028.9;;;4.6;63.1
74437;BME280;62868;52.360;30.424;2024-02-21T16:54:55;1028.9;;;4.6;63.2
74437;BME280;62868;52.360;30.424;2024-02-21T16:59:29;1028.9;;;4.5;63.4
74437;BME280;62868;52.360;30.424;2024-02-21T17:04:55;1028.9;;;4.5;63.5
74437;BME280;62868;52.360;30.424;2024-02-21T17:09:55;1028.9;;;4.4;63.5
74437;BME280;62868;52.360;30.424;2024-02-21T17:14:19;1028.9;;;4.4;63.7
74437;BME280;62868;52.360;30.424;2024-02-21T17:19:29;1028.9;;;4.4;63.8
74437;BME280;62868;52.360;30.424;2024-02-21T17:24:15;1028.9;;;4.4;63.8
74437;BME280;62868;52.360;30.424;2024-02-21T17:29:31;1028.8;;;4.3;64
74437;BME280;62868;52.360;30.424;2024-02-21T17:34:55;1028.7;;;4.3;64
74437;BME280;62868;52.360;30.424;2024-02-21T17:39:13;1028.7;;;4.2;64.1
74437;BME280;62868;52.360;30.424;2024-02-21T17:44:55;1028.6;;;4.2;64.2
74437;BME280;62868;52.360;30.424;2024-02-21T17:49:21;1028.5;;;4.1;64.3
74437;BME280;62868;52.360;30.424;2024-02-21T17:54:21;1028.4;;;4.1;64.5
74437;BME280;62868;52.360;30.424;2024-02-21T17:59:27;1028.4;;;4.1;64.5
74437;BME280;62868;52.360;30.424;2024-02-21T18:04:13;1028.4;;;4.1;64.6
74437;BME280;62868;52.360;30.424;2024-02-21T18:09:21;1028.4;;;4.1;64.6
74437;BME280;62868;52.360;30.424;2024-02-21T18:14:21;1028.3;;;4;64.8
74437;BME280;62868;52.360;30.424;2024-02-21T18:19:45;1028.3;;;4;64.8
74437;BME280;62868;52.360;30.424;2024-02-21T18:24:13;1028.2;;;4;64.8
74437;BME280;62868;52.360;30.424;2024-02-21T18:29:55;1028.3;;;4;64.9
74437;BME280;62868;52.360;30.424;2024-02-21T18:34:29;1028.4;;;4;65
74437;BME280;62868;52.360;30.424;2024-02-21T18:39:55;1028.4;;;4.1;65.1
74437;BME280;62868;52.360;30.424;2024-02-21T18:44:29;1028.4;;;4.1;65.1
74437;BME280;62868;52.360;30.424;2024-02-21T18:54:45;1028.2;;;4.1;65.2
74437;BME280;62868;52.360;30.424;2024-02-21T18:59:39;1028.2;;;4.1;65.3
74437;BME280;62868;52.360;30.424;2024-02-21T19:04:53;1028.2;;;4.1;65.4
74437;BME280;62868;52.360;30.424;2024-02-21T19:09:45;1028.2;;;4.1;65.3
74437;BME280;62868;52.360;30.424;2024-02-21T19:14:43;1028.2;;;4.1;65.3
74437;BME280;62868;52.360;30.424;2024-02-21T19:19:51;1028.2;;;4.1;65.4
74437;BME280;62868;52.360;30.424;2024-02-21T19:24:57;1028.1;;;4.1;65.5
74437;BME280;62868;52.360;30.424;2024-02-21T19:29:45;1028.1;;;4.1;65.5
74437;BME280;62868;52.360;30.424;2024-02-21T19:34:26;1028.1;;;4.1;65.5
74437;BME280;62868;52.360;30.424;2024-02-21T19:39:13;1028;;;4;65.6
74437;BME280;62868;52.360;30.424;2024-02-21T19:44:21;1028;;;4;65.6
74437;BME280;62868;52.360;30.424;2024-02-21T19:49:13;1027.9;;;4;65.7
74437;BME280;62868;52.360;30.424;2024-02-21T19:54:13;1028;;;4;65.7
74437;BME280;62868;52.360;30.424;2024-02-21T19:59:29;1028;;;4;65.7
74437;BME280;62868;52.360;30.424;2024-02-21T20:04:39;1027.9;;;4.1;65.7
74437;BME280;62868;52.360;30.424;2024-02-21T20:09:29;1027.9;;;4.1;65.8
74437;BME280;62868;52.360;30.424;2024-02-21T20:14:53;1027.9;;;4.1;65.9
74437;BME280;62868;52.360;30.424;2024-02-21T20:19:45;1027.9;;;4.1;65.9
74437;BME280;62868;52.360;30.424;2024-02-21T20:24:39;1027.9;;;4.1;66
74437;BME280;62868;52.360;30.424;2024-02-21T20:29:13;1027.9;;;4.1;66.1
74437;BME280;62868;52.360;30.424;2024-02-21T20:34:31;1027.9;;;4.1;66.1
74437;BME280;62868;52.360;30.424;2024-02-21T20:39:15;1027.9;;;4.2;66.1
74437;BME280;62868;52.360;30.424;2024-02-21T20:44:15;1027.9;;;4.2;66.2
74437;BME280;62868;52.360;30.424;2024-02-21T20:49:13;1027.7;;;4.2;66.2
74437;BME280;62868;52.360;30.424;2024-02-21T20:54:45;1027.7;;;4.2;66.2
74437;BME280;62868;52.360;30.424;2024-02-21T20:59:55;1027.7;;;4.2;66.2
74437;BME280;62868;52.360;30.424;2024-02-21T21:04:33;1027.7;;;4.2;66.2
74437;BME280;62868;52.360;30.424;2024-02-21T21:09:55;1027.7;;;4.2;66.3
74437;BME280;62868;52.360;30.424;2024-02-21T21:14:19;1027.7;;;4.3;66.3
74437;BME280;62868;52.360;30.424;2024-02-21T21:19:13;1027.6;;;4.2;66.4
74437;BME280;62868;52.360;30.424;2024-02-21T21:24:27;1027.6;;;4.3;66.3
74437;BME280;62868;52.360;30.424;2024-02-21T21:29:13;1027.6;;;4.3;66.4
74437;BME280;62868;52.360;30.424;2024-02-21T21:34:37;1027.6;;;4.3;66.4
74437;BME280;62868;52.360;30.424;2024-02-21T21:39:37;1027.6;;;4.3;66.4
74437;BME280;62868;52.360;30.424;2024-02-21T21:44:21;1027.6;;;4.3;66.5
74437;BME280;62868;52.360;30.424;2024-02-21T21:49:55;1027.5;;;4.3;66.5
74437;BME280;62868;52.360;30.424;2024-02-21T21:54:35;1027.5;;;4.3;66.5
74437;BME280;62868;52.360;30.424;2024-02-21T21:59:37;1027.5;;;4.3;66.6
74437;BME280;62868;52.360;30.424;2024-02-21T22:04:28;1027.4;;;4.3;66.6
74437;BME280;62868;52.360;30.424;2024-02-21T22:09:29;1027.4;;;4.3;66.6
74437;BME280;62868;52.360;30.424;2024-02-21T22:14:43;1027.4;;;4.3;66.6
74437;BME280;62868;52.360;30.424;2024-02-21T22:19:13;1027.4;;;4.3;66.6
74437;BME280;62868;52.360;30.424;2024-02-21T22:24:33;1027.4;;;4.4;66.6
74437;BME280;62868;52.360;30.424;2024-02-21T22:29:45;1027.4;;;4.3;66.6
74437;BME280;62868;52.360;30.424;2024-02-21T22:34:55;1027.4;;;4.3;66.7
74437;BME280;62868;52.360;30.424;2024-02-21T22:39:13;1027.4;;;4.3;66.7
74437;BME280;62868;52.360;30.424;2024-02-21T22:44:45;1027.3;;;4.3;66.7
74437;BME280;62868;52.360;30.424;2024-02-21T22:49:39;1027.3;;;4.3;66.8
74437;BME280;62868;52.360;30.424;2024-02-21T22:54:45;1027.2;;;4.3;66.8
74437;BME280;62868;52.360;30.424;2024-02-21T22:59:21;1027.2;;;4.3;66.8
74437;BME280;62868;52.360;30.424;2024-02-21T23:04:13;1027.2;;;4.3;66.8
74437;BME280;62868;52.360;30.424;2024-02-21T23:09:27;1027.2;;;4.3;66.8
74437;BME280;62868;52.360;30.424;2024-02-21T23:14:57;1027.1;;;4.3;66.8
74437;BME280;62868;52.360;30.424;2024-02-21T23:19:45;1027;;;4.3;66.9
74437;BME280;62868;52.360;30.424;2024-02-21T23:24:47;1027;;;4.3;66.9
74437;BME280;62868;52.360;30.424;2024-02-21T23:29:55;1027;;;4.3;66.9
74437;BME280;62868;52.360;30.424;2024-02-21T23:34:21;1026.9;;;4.2;67
74437;BME280;62868;52.360;30.424;2024-02-21T23:39:55;1026.9;;;4.2;67
74437;BME280;62868;52.360;30.424;2024-02-21T23:44:57;1026.8;;;4.1;67
74437;BME280;62868;52.360;30.424;2024-02-21T23:49:37;1026.8;;;4.1;67
74437;BME280;62868;52.360;30.424;2024-02-21T23:54:23;1026.8;;;4;67.1
74437;BME280;62868;52.360;30.424;2024-02-21T23:59:33;1026.7;;;4;67.1
